sensor_id;sensor_type;location;lat;lon;timestamp;temperature;humidity
46608;DHT22;32330;51.936;7.184;2023-11-19T00:00:30;10.40;99.90
46608;DHT22;32330;51.936;7.184;2023-11-19T00:02:57;10.50;99.90
46608;DHT22;32330;51.936;7.184;2023-11-19T00:05:24;10.50;99.90
46608;DHT22;32330;51.936;7.184;2023-11-19T00:07:53;10.50;99.90
46608;DHT22;32330;51.936;7.184;2023-11-19T00:10:21;10.50;99.90
46608;DHT22;32330;51.936;7.184;2023-11-19T00:12:49;10.50;99.90
46608;DHT22;32330;51.936;7.184;2023-11-19T00:15:17;10.50;99.90
46608;DHT22;32330;51.936;7.184;2023-11-19T00:17:45;10.60;99.90
46608;DHT22;32330;51.936;7.184;2023-11-19T00:20:12;10.60;99.90
46608;DHT22;32330;51.936;7.184;2023-11-19T00:22:39;10.60;99.90
46608;DHT22;32330;51.936;7.184;2023-11-19T00:25:08;10.60;99.90
46608;DHT22;32330;51.936;7.184;2023-11-19T00:27:36;10.60;99.90
46608;DHT22;32330;51.936;7.184;2023-11-19T00:30:05;10.70;99.90
46608;DHT22;32330;51.936;7.184;2023-11-19T00:32:33;10.70;99.90
46608;DHT22;32330;51.936;7.184;2023-11-19T00:35:00;10.70;99.90
46608;DHT22;32330;51.936;7.184;2023-11-19T00:37:27;10.70;99.90
46608;DHT22;32330;51.936;7.184;2023-11-19T00:39:54;10.80;99.90
46608;DHT22;32330;51.936;7.184;2023-11-19T00:42:22;10.80;99.90
46608;DHT22;32330;51.936;7.184;2023-11-19T00:44:51;10.80;99.90
46608;DHT22;32330;51.936;7.184;2023-11-19T00:47:18;10.90;99.90
46608;DHT22;32330;51.936;7.184;2023-11-19T00:49:46;10.90;99.90
46608;DHT22;32330;51.936;7.184;2023-11-19T00:52:14;10.90;99.90
46608;DHT22;32330;51.936;7.184;2023-11-19T00:54:42;10.90;99.90
46608;DHT22;32330;51.936;7.184;2023-11-19T00:57:08;10.90;99.90
46608;DHT22;32330;51.936;7.184;2023-11-19T00:59:35;10.90;99.90
46608;DHT22;32330;51.936;7.184;2023-11-19T01:02:04;11.00;99.90
46608;DHT22;32330;51.936;7.184;2023-11-19T01:04:33;11.00;99.90
46608;DHT22;32330;51.936;7.184;2023-11-19T01:07:01;11.00;99.90
46608;DHT22;32330;51.936;7.184;2023-11-19T01:09:30;11.00;99.90
46608;DHT22;32330;51.936;7.184;2023-11-19T01:12:00;11.00;99.90
46608;DHT22;32330;51.936;7.184;2023-11-19T01:14:27;11.00;99.90
46608;DHT22;32330;51.936;7.184;2023-11-19T01:16:54;11.00;99.90
46608;DHT22;32330;51.936;7.184;2023-11-19T01:19:23;11.10;99.90
46608;DHT22;32330;51.936;7.184;2023-11-19T01:21:50;11.10;99.90
46608;DHT22;32330;51.936;7.184;2023-11-19T01:24:17;11.10;99.90
46608;DHT22;32330;51.936;7.184;2023-11-19T01:26:44;11.10;99.90
46608;DHT22;32330;51.936;7.184;2023-11-19T01:29:12;11.20;99.90
46608;DHT22;32330;51.936;7.184;2023-11-19T01:31:40;11.20;99.90
46608;DHT22;32330;51.936;7.184;2023-11-19T01:34:07;11.20;99.90
46608;DHT22;32330;51.936;7.184;2023-11-19T01:36:35;11.20;99.90
46608;DHT22;32330;51.936;7.184;2023-11-19T01:39:03;11.30;99.90
46608;DHT22;32330;51.936;7.184;2023-11-19T01:41:34;11.30;99.90
46608;DHT22;32330;51.936;7.184;2023-11-19T01:44:01;11.40;99.90
46608;DHT22;32330;51.936;7.184;2023-11-19T01:46:28;11.40;99.90
46608;DHT22;32330;51.936;7.184;2023-11-19T01:48:56;11.40;99.90
46608;DHT22;32330;51.936;7.184;2023-11-19T01:51:23;11.40;99.90
46608;DHT22;32330;51.936;7.184;2023-11-19T01:53:52;11.50;99.90
46608;DHT22;32330;51.936;7.184;2023-11-19T01:56:20;11.50;99.90
46608;DHT22;32330;51.936;7.184;2023-11-19T01:58:49;11.60;99.90
46608;DHT22;32330;51.936;7.184;2023-11-19T02:01:16;11.60;99.90
46608;DHT22;32330;51.936;7.184;2023-11-19T02:03:43;11.60;99.90
46608;DHT22;32330;51.936;7.184;2023-11-19T02:06:10;11.70;99.90
46608;DHT22;32330;51.936;7.184;2023-11-19T02:08:38;11.70;99.90
46608;DHT22;32330;51.936;7.184;2023-11-19T02:11:07;11.80;99.90
46608;DHT22;32330;51.936;7.184;2023-11-19T02:13:34;11.80;99.90
46608;DHT22;32330;51.936;7.184;2023-11-19T02:16:02;11.90;99.90
46608;DHT22;32330;51.936;7.184;2023-11-19T02:18:30;11.90;99.90
46608;DHT22;32330;51.936;7.184;2023-11-19T02:20:58;12.00;99.90
46608;DHT22;32330;51.936;7.184;2023-11-19T02:23:26;12.10;99.90
46608;DHT22;32330;51.936;7.184;2023-11-19T02:26:09;12.10;99.90
46608;DHT22;32330;51.936;7.184;2023-11-19T02:28:44;12.10;99.90
46608;DHT22;32330;51.936;7.184;2023-11-19T02:31:11;12.10;99.90
46608;DHT22;32330;51.936;7.184;2023-11-19T02:33:38;12.20;99.90
46608;DHT22;32330;51.936;7.184;2023-11-19T02:36:07;12.20;99.90
46608;DHT22;32330;51.936;7.184;2023-11-19T02:38:34;12.20;99.90
46608;DHT22;32330;51.936;7.184;2023-11-19T02:41:03;12.20;99.90
46608;DHT22;32330;51.936;7.184;2023-11-19T02:43:31;12.20;99.90
46608;DHT22;32330;51.936;7.184;2023-11-19T02:46:01;12.30;99.90
46608;DHT22;32330;51.936;7.184;2023-11-19T02:48:28;12.30;99.90
46608;DHT22;32330;51.936;7.184;2023-11-19T02:50:56;12.30;99.90
46608;DHT22;32330;51.936;7.184;2023-11-19T02:53:24;12.30;99.90
46608;DHT22;32330;51.936;7.184;2023-11-19T02:55:53;12.40;99.90
46608;DHT22;32330;51.936;7.184;2023-11-19T02:58:26;12.30;99.90
46608;DHT22;32330;51.936;7.184;2023-11-19T03:00:54;12.40;99.90
46608;DHT22;32330;51.936;7.184;2023-11-19T03:03:26;12.40;99.90
46608;DHT22;32330;51.936;7.184;2023-11-19T03:06:04;12.40;99.90
46608;DHT22;32330;51.936;7.184;2023-11-19T03:08:31;12.40;99.90
46608;DHT22;32330;51.936;7.184;2023-11-19T03:10:59;12.40;99.90
46608;DHT22;32330;51.936;7.184;2023-11-19T03:13:26;12.40;99.90
46608;DHT22;32330;51.936;7.184;2023-11-19T03:15:53;12.40;99.90
46608;DHT22;32330;51.936;7.184;2023-11-19T03:18:20;12.40;99.90
46608;DHT22;32330;51.936;7.184;2023-11-19T03:20:48;12.40;99.90
46608;DHT22;32330;51.936;7.184;2023-11-19T03:23:16;12.40;99.90
46608;DHT22;32330;51.936;7.184;2023-11-19T03:25:43;12.40;99.90
46608;DHT22;32330;51.936;7.184;2023-11-19T03:28:10;12.40;99.90
46608;DHT22;32330;51.936;7.184;2023-11-19T03:30:37;12.40;99.90
46608;DHT22;32330;51.936;7.184;2023-11-19T03:33:04;12.40;99.90
46608;DHT22;32330;51.936;7.184;2023-11-19T03:35:31;12.40;99.90
46608;DHT22;32330;51.936;7.184;2023-11-19T03:38:00;12.40;99.90
46608;DHT22;32330;51.936;7.184;2023-11-19T03:40:28;12.40;99.90
46608;DHT22;32330;51.936;7.184;2023-11-19T03:42:56;12.40;99.90
46608;DHT22;32330;51.936;7.184;2023-11-19T03:45:22;12.40;99.90
46608;DHT22;32330;51.936;7.184;2023-11-19T03:47:50;12.40;99.90
46608;DHT22;32330;51.936;7.184;2023-11-19T03:50:17;12.40;99.90
46608;DHT22;32330;51.936;7.184;2023-11-19T03:52:45;12.40;99.90
46608;DHT22;32330;51.936;7.184;2023-11-19T03:55:14;12.40;99.90
46608;DHT22;32330;51.936;7.184;2023-11-19T03:57:41;12.40;99.90
46608;DHT22;32330;51.936;7.184;2023-11-19T04:00:08;12.40;99.90
46608;DHT22;32330;51.936;7.184;2023-11-19T04:02:39;12.40;99.90
46608;DHT22;32330;51.936;7.184;2023-11-19T04:05:06;12.30;99.90
46608;DHT22;32330;51.936;7.184;2023-11-19T04:07:33;12.30;99.90
46608;DHT22;32330;51.936;7.184;2023-11-19T04:10:00;12.30;99.90
46608;DHT22;32330;51.936;7.184;2023-11-19T04:12:29;12.30;99.90
46608;DHT22;32330;51.936;7.184;2023-11-19T04:14:56;12.20;99.90
46608;DHT22;32330;51.936;7.184;2023-11-19T04:17:22;12.20;99.90
46608;DHT22;32330;51.936;7.184;2023-11-19T04:19:50;12.20;99.90
46608;DHT22;32330;51.936;7.184;2023-11-19T04:22:17;12.20;99.90
46608;DHT22;32330;51.936;7.184;2023-11-19T04:24:44;12.20;99.90
46608;DHT22;32330;51.936;7.184;2023-11-19T04:27:11;12.20;99.90
46608;DHT22;32330;51.936;7.184;2023-11-19T04:29:41;12.20;99.90
46608;DHT22;32330;51.936;7.184;2023-11-19T04:32:07;12.20;99.90
46608;DHT22;32330;51.936;7.184;2023-11-19T04:34:34;12.20;99.90
46608;DHT22;32330;51.936;7.184;2023-11-19T04:37:03;12.20;99.90
46608;DHT22;32330;51.936;7.184;2023-11-19T04:39:30;12.20;99.90
46608;DHT22;32330;51.936;7.184;2023-11-19T04:41:57;12.20;99.90
46608;DHT22;32330;51.936;7.184;2023-11-19T04:44:25;12.20;99.90
46608;DHT22;32330;51.936;7.184;2023-11-19T04:46:53;12.20;99.90
46608;DHT22;32330;51.936;7.184;2023-11-19T04:49:20;12.20;99.90
46608;DHT22;32330;51.936;7.184;2023-11-19T04:51:47;12.20;99.90
46608;DHT22;32330;51.936;7.184;2023-11-19T04:54:13;12.20;99.90
46608;DHT22;32330;51.936;7.184;2023-11-19T04:56:40;12.20;99.90
46608;DHT22;32330;51.936;7.184;2023-11-19T04:59:11;12.10;99.90
46608;DHT22;32330;51.936;7.184;2023-11-19T05:01:38;12.10;99.90
46608;DHT22;32330;51.936;7.184;2023-11-19T05:04:07;12.10;99.90
46608;DHT22;32330;51.936;7.184;2023-11-19T05:06:34;12.00;99.90
46608;DHT22;32330;51.936;7.184;2023-11-19T05:09:02;12.00;99.90
46608;DHT22;32330;51.936;7.184;2023-11-19T05:11:30;12.00;99.90
46608;DHT22;32330;51.936;7.184;2023-11-19T05:13:57;12.00;99.90
46608;DHT22;32330;51.936;7.184;2023-11-19T05:16:24;12.00;99.90
46608;DHT22;32330;51.936;7.184;2023-11-19T05:18:51;12.00;99.90
46608;DHT22;32330;51.936;7.184;2023-11-19T05:21:20;11.90;99.90
46608;DHT22;32330;51.936;7.184;2023-11-19T05:23:47;11.90;99.90
46608;DHT22;32330;51.936;7.184;2023-11-19T05:26:18;11.90;99.90
46608;DHT22;32330;51.936;7.184;2023-11-19T05:28:45;11.90;99.90
46608;DHT22;32330;51.936;7.184;2023-11-19T05:31:13;11.80;99.90
46608;DHT22;32330;51.936;7.184;2023-11-19T05:33:40;11.80;99.90
46608;DHT22;32330;51.936;7.184;2023-11-19T05:36:07;11.80;99.90
46608;DHT22;32330;51.936;7.184;2023-11-19T05:38:36;11.80;99.90
46608;DHT22;32330;51.936;7.184;2023-11-19T05:41:03;11.80;99.90
46608;DHT22;32330;51.936;7.184;2023-11-19T05:43:30;11.80;99.90
46608;DHT22;32330;51.936;7.184;2023-11-19T05:45:57;11.80;99.90
46608;DHT22;32330;51.936;7.184;2023-11-19T05:48:26;11.80;99.90
46608;DHT22;32330;51.936;7.184;2023-11-19T05:50:53;11.80;99.90
46608;DHT22;32330;51.936;7.184;2023-11-19T05:53:20;11.80;99.90
46608;DHT22;32330;51.936;7.184;2023-11-19T05:55:49;11.80;99.90
46608;DHT22;32330;51.936;7.184;2023-11-19T05:58:23;11.70;99.90
46608;DHT22;32330;51.936;7.184;2023-11-19T06:00:51;11.70;99.90
46608;DHT22;32330;51.936;7.184;2023-11-19T06:03:18;11.80;99.90
46608;DHT22;32330;51.936;7.184;2023-11-19T06:05:45;11.70;99.90
46608;DHT22;32330;51.936;7.184;2023-11-19T06:08:12;11.70;99.90
46608;DHT22;32330;51.936;7.184;2023-11-19T06:10:40;11.70;99.90
46608;DHT22;32330;51.936;7.184;2023-11-19T06:13:08;11.60;99.90
46608;DHT22;32330;51.936;7.184;2023-11-19T06:15:37;11.60;99.90
46608;DHT22;32330;51.936;7.184;2023-11-19T06:18:04;11.70;99.90
46608;DHT22;32330;51.936;7.184;2023-11-19T06:20:32;11.60;99.90
46608;DHT22;32330;51.936;7.184;2023-11-19T06:22:59;11.60;99.90
46608;DHT22;32330;51.936;7.184;2023-11-19T06:25:26;11.60;99.90
46608;DHT22;32330;51.936;7.184;2023-11-19T06:27:53;11.60;99.90
46608;DHT22;32330;51.936;7.184;2023-11-19T06:30:21;11.60;99.90
46608;DHT22;32330;51.936;7.184;2023-11-19T06:32:48;11.60;99.90
46608;DHT22;32330;51.936;7.184;2023-11-19T06:35:15;11.60;99.90
46608;DHT22;32330;51.936;7.184;2023-11-19T06:37:42;11.50;99.90
46608;DHT22;32330;51.936;7.184;2023-11-19T06:40:09;11.60;99.90
46608;DHT22;32330;51.936;7.184;2023-11-19T06:42:37;11.50;99.90
46608;DHT22;32330;51.936;7.184;2023-11-19T06:45:06;11.60;99.90
46608;DHT22;32330;51.936;7.184;2023-11-19T06:47:34;11.50;99.90
46608;DHT22;32330;51.936;7.184;2023-11-19T06:50:01;11.50;99.90
46608;DHT22;32330;51.936;7.184;2023-11-19T06:52:31;11.50;99.90
46608;DHT22;32330;51.936;7.184;2023-11-19T06:54:58;11.50;99.90
46608;DHT22;32330;51.936;7.184;2023-11-19T06:57:24;11.50;99.90
46608;DHT22;32330;51.936;7.184;2023-11-19T06:59:51;11.40;99.90
46608;DHT22;32330;51.936;7.184;2023-11-19T07:02:18;11.50;99.90
46608;DHT22;32330;51.936;7.184;2023-11-19T07:04:47;11.50;99.90
46608;DHT22;32330;51.936;7.184;2023-11-19T07:07:14;11.50;99.90
46608;DHT22;32330;51.936;7.184;2023-11-19T07:09:41;11.50;99.90
46608;DHT22;32330;51.936;7.184;2023-11-19T07:12:08;11.40;99.90
46608;DHT22;32330;51.936;7.184;2023-11-19T07:14:36;11.40;99.90
46608;DHT22;32330;51.936;7.184;2023-11-19T07:17:03;11.40;99.90
46608;DHT22;32330;51.936;7.184;2023-11-19T07:19:30;11.40;99.90
46608;DHT22;32330;51.936;7.184;2023-11-19T07:21:58;11.50;99.90
46608;DHT22;32330;51.936;7.184;2023-11-19T07:24:25;11.50;99.90
46608;DHT22;32330;51.936;7.184;2023-11-19T07:26:54;11.40;99.90
46608;DHT22;32330;51.936;7.184;2023-11-19T07:29:21;11.40;99.90
46608;DHT22;32330;51.936;7.184;2023-11-19T07:31:48;11.40;99.90
46608;DHT22;32330;51.936;7.184;2023-11-19T07:34:15;11.40;99.90
46608;DHT22;32330;51.936;7.184;2023-11-19T07:36:42;11.40;99.90
46608;DHT22;32330;51.936;7.184;2023-11-19T07:39:10;11.40;99.90
46608;DHT22;32330;51.936;7.184;2023-11-19T07:41:37;11.40;99.90
46608;DHT22;32330;51.936;7.184;2023-11-19T07:44:05;11.40;99.90
46608;DHT22;32330;51.936;7.184;2023-11-19T07:46:32;11.40;99.90
46608;DHT22;32330;51.936;7.184;2023-11-19T07:48:59;11.40;99.90
46608;DHT22;32330;51.936;7.184;2023-11-19T07:51:26;11.40;99.90
46608;DHT22;32330;51.936;7.184;2023-11-19T07:53:52;11.50;99.90
46608;DHT22;32330;51.936;7.184;2023-11-19T07:56:21;11.40;99.90
46608;DHT22;32330;51.936;7.184;2023-11-19T07:58:47;11.50;99.90
46608;DHT22;32330;51.936;7.184;2023-11-19T08:01:15;11.50;99.90
46608;DHT22;32330;51.936;7.184;2023-11-19T08:03:42;11.50;99.90
46608;DHT22;32330;51.936;7.184;2023-11-19T08:06:09;11.60;99.90
46608;DHT22;32330;51.936;7.184;2023-11-19T08:08:36;11.60;99.90
46608;DHT22;32330;51.936;7.184;2023-11-19T08:11:04;11.60;99.90
46608;DHT22;32330;51.936;7.184;2023-11-19T08:13:33;11.60;99.90
46608;DHT22;32330;51.936;7.184;2023-11-19T08:16:08;11.60;99.90
46608;DHT22;32330;51.936;7.184;2023-11-19T08:18:36;11.60;99.90
46608;DHT22;32330;51.936;7.184;2023-11-19T08:21:03;11.60;99.90
46608;DHT22;32330;51.936;7.184;2023-11-19T08:23:30;11.60;99.90
46608;DHT22;32330;51.936;7.184;2023-11-19T08:25:57;11.60;99.90
46608;DHT22;32330;51.936;7.184;2023-11-19T08:28:24;11.60;99.90
46608;DHT22;32330;51.936;7.184;2023-11-19T08:30:52;11.60;99.90
46608;DHT22;32330;51.936;7.184;2023-11-19T08:33:19;11.70;99.90
46608;DHT22;32330;51.936;7.184;2023-11-19T08:35:48;11.70;99.90
46608;DHT22;32330;51.936;7.184;2023-11-19T08:38:15;11.70;99.90
46608;DHT22;32330;51.936;7.184;2023-11-19T08:40:42;11.70;99.90
46608;DHT22;32330;51.936;7.184;2023-11-19T08:43:08;11.70;99.90
46608;DHT22;32330;51.936;7.184;2023-11-19T08:45:35;11.70;99.90
46608;DHT22;32330;51.936;7.184;2023-11-19T08:48:04;11.70;99.90
46608;DHT22;32330;51.936;7.184;2023-11-19T08:50:31;11.80;99.90
46608;DHT22;32330;51.936;7.184;2023-11-19T08:52:58;11.90;99.90
46608;DHT22;32330;51.936;7.184;2023-11-19T08:55:25;12.00;99.90
46608;DHT22;32330;51.936;7.184;2023-11-19T08:57:52;12.10;99.90
46608;DHT22;32330;51.936;7.184;2023-11-19T09:00:19;12.10;99.90
46608;DHT22;32330;51.936;7.184;2023-11-19T09:02:46;12.10;99.90
46608;DHT22;32330;51.936;7.184;2023-11-19T09:05:15;12.10;99.90
46608;DHT22;32330;51.936;7.184;2023-11-19T09:07:42;12.10;99.90
46608;DHT22;32330;51.936;7.184;2023-11-19T09:10:09;12.10;99.90
46608;DHT22;32330;51.936;7.184;2023-11-19T09:12:37;12.10;99.90
46608;DHT22;32330;51.936;7.184;2023-11-19T09:15:04;12.10;99.90
46608;DHT22;32330;51.936;7.184;2023-11-19T09:17:32;12.10;99.90
46608;DHT22;32330;51.936;7.184;2023-11-19T09:19:59;12.10;99.90
46608;DHT22;32330;51.936;7.184;2023-11-19T09:22:27;12.10;99.90
46608;DHT22;32330;51.936;7.184;2023-11-19T09:24:54;12.10;99.90
46608;DHT22;32330;51.936;7.184;2023-11-19T09:27:21;12.10;99.90
46608;DHT22;32330;51.936;7.184;2023-11-19T09:29:48;12.10;99.90
46608;DHT22;32330;51.936;7.184;2023-11-19T09:32:16;12.10;99.90
46608;DHT22;32330;51.936;7.184;2023-11-19T09:34:43;12.10;99.90
46608;DHT22;32330;51.936;7.184;2023-11-19T09:37:10;12.10;99.90
46608;DHT22;32330;51.936;7.184;2023-11-19T09:39:39;12.10;99.90
46608;DHT22;32330;51.936;7.184;2023-11-19T09:42:08;12.20;99.90
46608;DHT22;32330;51.936;7.184;2023-11-19T09:44:36;12.20;99.90
46608;DHT22;32330;51.936;7.184;2023-11-19T09:47:04;12.20;99.90
46608;DHT22;32330;51.936;7.184;2023-11-19T09:49:32;12.20;99.90
46608;DHT22;32330;51.936;7.184;2023-11-19T09:51:59;12.30;99.90
46608;DHT22;32330;51.936;7.184;2023-11-19T09:54:26;12.30;99.90
46608;DHT22;32330;51.936;7.184;2023-11-19T09:56:56;12.30;99.90
46608;DHT22;32330;51.936;7.184;2023-11-19T09:59:26;12.40;99.90
46608;DHT22;32330;51.936;7.184;2023-11-19T10:01:53;12.30;99.90
46608;DHT22;32330;51.936;7.184;2023-11-19T10:04:20;12.30;99.90
46608;DHT22;32330;51.936;7.184;2023-11-19T10:06:47;12.30;99.90
46608;DHT22;32330;51.936;7.184;2023-11-19T10:09:15;12.40;99.90
46608;DHT22;32330;51.936;7.184;2023-11-19T10:11:41;12.40;99.90
46608;DHT22;32330;51.936;7.184;2023-11-19T10:14:10;12.40;99.90
46608;DHT22;32330;51.936;7.184;2023-11-19T10:16:38;12.40;99.90
46608;DHT22;32330;51.936;7.184;2023-11-19T10:19:05;12.40;99.90
46608;DHT22;32330;51.936;7.184;2023-11-19T10:21:32;12.40;99.90
46608;DHT22;32330;51.936;7.184;2023-11-19T10:24:00;12.40;99.90
46608;DHT22;32330;51.936;7.184;2023-11-19T10:26:27;12.40;99.90
46608;DHT22;32330;51.936;7.184;2023-11-19T10:28:55;12.40;99.90
46608;DHT22;32330;51.936;7.184;2023-11-19T10:31:24;12.40;99.90
46608;DHT22;32330;51.936;7.184;2023-11-19T10:33:52;12.40;99.90
46608;DHT22;32330;51.936;7.184;2023-11-19T10:36:19;12.40;99.90
46608;DHT22;32330;51.936;7.184;2023-11-19T10:38:52;12.40;99.90
46608;DHT22;32330;51.936;7.184;2023-11-19T10:41:27;12.40;99.90
46608;DHT22;32330;51.936;7.184;2023-11-19T10:43:54;12.40;99.90
46608;DHT22;32330;51.936;7.184;2023-11-19T10:46:20;12.40;99.90
46608;DHT22;32330;51.936;7.184;2023-11-19T10:48:50;12.50;99.90
46608;DHT22;32330;51.936;7.184;2023-11-19T10:51:19;12.50;99.90
46608;DHT22;32330;51.936;7.184;2023-11-19T10:53:49;12.60;99.90
46608;DHT22;32330;51.936;7.184;2023-11-19T10:56:17;12.80;99.90
46608;DHT22;32330;51.936;7.184;2023-11-19T10:58:49;12.90;99.90
46608;DHT22;32330;51.936;7.184;2023-11-19T11:01:19;12.90;99.90
46608;DHT22;32330;51.936;7.184;2023-11-19T11:03:47;12.90;99.90
46608;DHT22;32330;51.936;7.184;2023-11-19T11:06:18;13.00;99.90
46608;DHT22;32330;51.936;7.184;2023-11-19T11:08:46;13.00;99.90
46608;DHT22;32330;51.936;7.184;2023-11-19T11:11:16;13.00;99.90
46608;DHT22;32330;51.936;7.184;2023-11-19T11:13:47;13.00;99.90
46608;DHT22;32330;51.936;7.184;2023-11-19T11:16:18;13.00;99.90
46608;DHT22;32330;51.936;7.184;2023-11-19T11:18:46;12.90;99.90
46608;DHT22;32330;51.936;7.184;2023-11-19T11:21:20;12.90;99.90
46608;DHT22;32330;51.936;7.184;2023-11-19T11:24:02;12.90;99.90
46608;DHT22;32330;51.936;7.184;2023-11-19T11:26:53;12.80;99.90
46608;DHT22;32330;51.936;7.184;2023-11-19T11:29:27;12.90;99.90
46608;DHT22;32330;51.936;7.184;2023-11-19T11:32:05;12.90;99.90
46608;DHT22;32330;51.936;7.184;2023-11-19T11:34:49;12.80;99.90
46608;DHT22;32330;51.936;7.184;2023-11-19T11:37:26;12.90;99.90
46608;DHT22;32330;51.936;7.184;2023-11-19T11:39:57;12.90;99.90
46608;DHT22;32330;51.936;7.184;2023-11-19T11:42:34;12.90;99.90
46608;DHT22;32330;51.936;7.184;2023-11-19T11:45:03;12.80;99.90
46608;DHT22;32330;51.936;7.184;2023-11-19T11:48:14;12.90;99.90
46608;DHT22;32330;51.936;7.184;2023-11-19T11:50:49;12.90;99.90
46608;DHT22;32330;51.936;7.184;2023-11-19T11:53:19;13.00;99.90
46608;DHT22;32330;51.936;7.184;2023-11-19T11:56:00;13.10;99.90
46608;DHT22;32330;51.936;7.184;2023-11-19T11:58:31;13.20;99.90
46608;DHT22;32330;51.936;7.184;2023-11-19T12:01:00;13.20;99.90
46608;DHT22;32330;51.936;7.184;2023-11-19T12:03:28;13.20;99.90
46608;DHT22;32330;51.936;7.184;2023-11-19T12:05:57;13.20;99.90
46608;DHT22;32330;51.936;7.184;2023-11-19T12:08:27;13.20;99.90
46608;DHT22;32330;51.936;7.184;2023-11-19T12:10:57;13.20;99.90
46608;DHT22;32330;51.936;7.184;2023-11-19T12:13:46;13.20;99.90
46608;DHT22;32330;51.936;7.184;2023-11-19T12:16:14;13.20;99.90
46608;DHT22;32330;51.936;7.184;2023-11-19T12:18:41;13.30;99.90
46608;DHT22;32330;51.936;7.184;2023-11-19T12:21:08;13.40;99.90
46608;DHT22;32330;51.936;7.184;2023-11-19T12:23:45;13.50;99.90
46608;DHT22;32330;51.936;7.184;2023-11-19T12:26:33;13.50;99.90
46608;DHT22;32330;51.936;7.184;2023-11-19T12:29:01;13.30;99.90
46608;DHT22;32330;51.936;7.184;2023-11-19T12:31:29;13.30;99.90
46608;DHT22;32330;51.936;7.184;2023-11-19T12:33:57;13.30;99.90
46608;DHT22;32330;51.936;7.184;2023-11-19T12:36:24;13.30;99.90
46608;DHT22;32330;51.936;7.184;2023-11-19T12:38:52;13.30;99.90
46608;DHT22;32330;51.936;7.184;2023-11-19T12:41:19;13.30;99.90
46608;DHT22;32330;51.936;7.184;2023-11-19T12:43:49;13.30;99.90
46608;DHT22;32330;51.936;7.184;2023-11-19T12:46:17;13.30;99.90
46608;DHT22;32330;51.936;7.184;2023-11-19T12:48:45;13.30;99.90
46608;DHT22;32330;51.936;7.184;2023-11-19T12:51:12;13.40;99.90
46608;DHT22;32330;51.936;7.184;2023-11-19T12:53:48;13.50;99.90
46608;DHT22;32330;51.936;7.184;2023-11-19T12:56:17;13.40;99.90
46608;DHT22;32330;51.936;7.184;2023-11-19T12:58:44;13.40;99.90
46608;DHT22;32330;51.936;7.184;2023-11-19T13:01:16;13.40;99.90
46608;DHT22;32330;51.936;7.184;2023-11-19T13:03:43;13.50;99.90
46608;DHT22;32330;51.936;7.184;2023-11-19T13:06:12;13.50;99.90
46608;DHT22;32330;51.936;7.184;2023-11-19T13:08:41;13.50;99.90
46608;DHT22;32330;51.936;7.184;2023-11-19T13:11:09;13.50;99.90
46608;DHT22;32330;51.936;7.184;2023-11-19T13:13:57;13.50;99.90
46608;DHT22;32330;51.936;7.184;2023-11-19T13:16:25;13.40;99.90
46608;DHT22;32330;51.936;7.184;2023-11-19T13:18:52;13.30;99.90
46608;DHT22;32330;51.936;7.184;2023-11-19T13:21:19;13.30;99.90
46608;DHT22;32330;51.936;7.184;2023-11-19T13:23:46;13.30;99.90
46608;DHT22;32330;51.936;7.184;2023-11-19T13:26:13;13.20;99.90
46608;DHT22;32330;51.936;7.184;2023-11-19T13:28:40;13.20;99.90
46608;DHT22;32330;51.936;7.184;2023-11-19T13:31:08;13.20;99.90
46608;DHT22;32330;51.936;7.184;2023-11-19T13:33:36;13.10;99.90
46608;DHT22;32330;51.936;7.184;2023-11-19T13:36:03;13.10;99.90
46608;DHT22;32330;51.936;7.184;2023-11-19T13:38:33;13.10;99.90
46608;DHT22;32330;51.936;7.184;2023-11-19T13:41:00;13.10;99.90
46608;DHT22;32330;51.936;7.184;2023-11-19T13:43:27;13.00;99.90
46608;DHT22;32330;51.936;7.184;2023-11-19T13:45:54;13.10;99.90
46608;DHT22;32330;51.936;7.184;2023-11-19T13:48:23;13.10;99.90
46608;DHT22;32330;51.936;7.184;2023-11-19T13:50:50;13.30;99.90
46608;DHT22;32330;51.936;7.184;2023-11-19T13:53:17;13.40;99.90
46608;DHT22;32330;51.936;7.184;2023-11-19T13:55:44;13.40;99.90
46608;DHT22;32330;51.936;7.184;2023-11-19T13:58:11;13.30;99.90
46608;DHT22;32330;51.936;7.184;2023-11-19T14:00:38;13.20;99.90
46608;DHT22;32330;51.936;7.184;2023-11-19T14:03:07;13.20;99.90
46608;DHT22;32330;51.936;7.184;2023-11-19T14:05:36;13.20;99.90
46608;DHT22;32330;51.936;7.184;2023-11-19T14:08:03;13.20;99.90
46608;DHT22;32330;51.936;7.184;2023-11-19T14:10:37;13.20;99.90
46608;DHT22;32330;51.936;7.184;2023-11-19T14:13:06;13.20;99.90
46608;DHT22;32330;51.936;7.184;2023-11-19T14:15:33;13.20;99.90
46608;DHT22;32330;51.936;7.184;2023-11-19T14:18:00;13.20;99.90
46608;DHT22;32330;51.936;7.184;2023-11-19T14:20:28;13.10;99.90
46608;DHT22;32330;51.936;7.184;2023-11-19T14:22:56;13.00;99.90
46608;DHT22;32330;51.936;7.184;2023-11-19T14:25:23;13.00;99.90
46608;DHT22;32330;51.936;7.184;2023-11-19T14:27:50;13.10;99.90
46608;DHT22;32330;51.936;7.184;2023-11-19T14:30:17;13.00;99.90
46608;DHT22;32330;51.936;7.184;2023-11-19T14:32:44;13.00;99.90
46608;DHT22;32330;51.936;7.184;2023-11-19T14:35:11;12.90;99.90
46608;DHT22;32330;51.936;7.184;2023-11-19T14:37:38;12.90;99.90
46608;DHT22;32330;51.936;7.184;2023-11-19T14:40:07;12.90;99.90
46608;DHT22;32330;51.936;7.184;2023-11-19T14:42:35;12.90;99.90
46608;DHT22;32330;51.936;7.184;2023-11-19T14:45:03;12.90;99.90
46608;DHT22;32330;51.936;7.184;2023-11-19T14:47:30;12.80;99.90
46608;DHT22;32330;51.936;7.184;2023-11-19T14:49:57;12.70;99.90
46608;DHT22;32330;51.936;7.184;2023-11-19T14:52:24;12.60;99.90
46608;DHT22;32330;51.936;7.184;2023-11-19T14:54:51;12.60;99.90
46608;DHT22;32330;51.936;7.184;2023-11-19T14:57:21;12.50;99.90
46608;DHT22;32330;51.936;7.184;2023-11-19T14:59:47;12.50;99.90
46608;DHT22;32330;51.936;7.184;2023-11-19T15:02:14;12.30;99.90
46608;DHT22;32330;51.936;7.184;2023-11-19T15:04:41;12.30;99.90
46608;DHT22;32330;51.936;7.184;2023-11-19T15:07:09;12.20;99.90
46608;DHT22;32330;51.936;7.184;2023-11-19T15:09:37;12.10;99.90
46608;DHT22;32330;51.936;7.184;2023-11-19T15:12:05;12.10;99.90
46608;DHT22;32330;51.936;7.184;2023-11-19T15:14:33;12.10;99.90
46608;DHT22;32330;51.936;7.184;2023-11-19T15:17:00;12.10;99.90
46608;DHT22;32330;51.936;7.184;2023-11-19T15:19:27;12.10;99.90
46608;DHT22;32330;51.936;7.184;2023-11-19T15:21:54;12.10;99.90
46608;DHT22;32330;51.936;7.184;2023-11-19T15:24:21;12.10;99.90
46608;DHT22;32330;51.936;7.184;2023-11-19T15:26:48;12.00;99.90
46608;DHT22;32330;51.936;7.184;2023-11-19T15:29:15;12.00;99.90
46608;DHT22;32330;51.936;7.184;2023-11-19T15:31:43;11.90;99.90
46608;DHT22;32330;51.936;7.184;2023-11-19T15:34:10;11.90;99.90
46608;DHT22;32330;51.936;7.184;2023-11-19T15:36:37;11.90;99.90